createdAt,value
2019-03-29T00:01:28.104Z,100.00
2019-03-29T00:03:59.370Z,100.00
2019-03-29T00:06:30.789Z,100.00
2019-03-29T00:09:02.558Z,100.00
2019-03-29T00:11:33.438Z,100.00
2019-03-29T00:14:04.476Z,100.00
2019-03-29T00:16:35.534Z,100.00
2019-03-29T00:19:06.827Z,100.00
2019-03-29T00:21:39.061Z,100.00
2019-03-29T00:24:10.684Z,100.00
2019-03-29T00:26:42.978Z,100.00
2019-03-29T00:29:14.490Z,100.00
2019-03-29T00:31:45.220Z,100.00
2019-03-29T00:34:16.309Z,100.00
2019-03-29T00:36:47.512Z,100.00
2019-03-29T00:39:19.146Z,100.00
2019-03-29T00:41:50.316Z,100.00
2019-03-29T00:44:21.863Z,100.00
2019-03-29T00:46:53.255Z,100.00
2019-03-29T00:49:24.072Z,100.00
2019-03-29T00:51:55.260Z,100.00
2019-03-29T00:54:26.343Z,100.00
2019-03-29T00:57:00.101Z,100.00
2019-03-29T00:59:31.896Z,100.00
2019-03-29T01:02:03.397Z,100.00
2019-03-29T01:04:34.510Z,100.00
2019-03-29T01:07:12.069Z,100.00
2019-03-29T01:09:43.384Z,100.00
2019-03-29T01:12:14.825Z,100.00
2019-03-29T01:14:45.726Z,100.00
2019-03-29T01:17:16.739Z,100.00
2019-03-29T01:19:48.013Z,100.00
2019-03-29T01:22:19.578Z,100.00
2019-03-29T01:24:50.487Z,100.00
2019-03-29T01:27:21.588Z,100.00
2019-03-29T01:29:52.341Z,100.00
2019-03-29T01:32:28.603Z,100.00
2019-03-29T01:34:59.811Z,100.00
2019-03-29T01:37:30.802Z,100.00
2019-03-29T01:40:02.560Z,100.00
2019-03-29T01:42:33.349Z,100.00
2019-03-29T01:45:05.028Z,100.00
2019-03-29T01:47:35.969Z,100.00
2019-03-29T01:50:08.012Z,100.00
2019-03-29T01:52:38.973Z,100.00
2019-03-29T01:55:10.292Z,100.00
2019-03-29T01:57:41.253Z,100.00
2019-03-29T02:00:13.683Z,100.00
2019-03-29T02:02:44.950Z,100.00
2019-03-29T02:05:16.173Z,100.00
2019-03-29T02:07:46.914Z,100.00
2019-03-29T02:10:18.383Z,100.00
2019-03-29T02:12:49.232Z,100.00
2019-03-29T02:15:20.047Z,100.00
2019-03-29T02:17:50.945Z,100.00
2019-03-29T02:20:21.736Z,100.00
2019-03-29T02:22:53.598Z,100.00
2019-03-29T02:25:24.354Z,100.00
2019-03-29T02:27:55.482Z,100.00
2019-03-29T02:30:26.467Z,100.00
2019-03-29T02:32:57.548Z,100.00
2019-03-29T02:35:28.430Z,100.00
2019-03-29T02:38:00.155Z,100.00
2019-03-29T02:40:31.040Z,100.00
2019-03-29T02:43:01.936Z,100.00
2019-03-29T02:45:32.838Z,100.00
2019-03-29T02:48:03.602Z,100.00
2019-03-29T02:50:34.347Z,100.00
2019-03-29T02:53:06.003Z,100.00
2019-03-29T02:55:36.814Z,100.00
2019-03-29T02:58:08.088Z,100.00
2019-03-29T03:00:38.926Z,100.00
2019-03-29T03:03:09.859Z,100.00
2019-03-29T03:05:40.809Z,100.00
2019-03-29T03:08:11.999Z,100.00
2019-03-29T03:10:43.282Z,100.00
2019-03-29T03:13:14.216Z,100.00
2019-03-29T03:15:44.970Z,100.00
2019-03-29T03:18:16.124Z,100.00
2019-03-29T03:20:47.752Z,100.00
2019-03-29T03:23:19.167Z,100.00
2019-03-29T03:25:50.013Z,100.00
2019-03-29T03:28:21.160Z,100.00
2019-03-29T03:30:52.403Z,100.00
2019-03-29T03:33:23.660Z,100.00
2019-03-29T03:35:54.972Z,100.00
2019-03-29T03:38:26.165Z,100.00
2019-03-29T03:40:56.954Z,100.00
2019-03-29T03:43:28.161Z,100.00
2019-03-29T03:45:59.000Z,100.00
2019-03-29T03:48:29.869Z,100.00
2019-03-29T03:51:01.206Z,100.00
2019-03-29T03:53:32.310Z,100.00
2019-03-29T03:56:03.547Z,100.00
2019-03-29T03:58:35.723Z,100.00
2019-03-29T04:01:06.548Z,100.00
2019-03-29T04:03:37.732Z,100.00
2019-03-29T04:06:08.706Z,100.00
2019-03-29T04:08:39.880Z,100.00
2019-03-29T04:11:10.645Z,100.00
2019-03-29T04:13:41.637Z,100.00
2019-03-29T04:16:12.401Z,100.00
2019-03-29T04:18:43.223Z,100.00
2019-03-29T04:21:14.158Z,100.00
2019-03-29T04:23:45.674Z,100.00
2019-03-29T04:26:16.565Z,100.00
2019-03-29T04:29:03.426Z,100.00
2019-03-29T04:31:21.406Z,100.00
2019-03-29T04:33:52.327Z,100.00
2019-03-29T04:36:23.239Z,100.00
2019-03-29T04:38:54.064Z,100.00
2019-03-29T04:41:24.862Z,100.00
2019-03-29T04:43:56.100Z,100.00
2019-03-29T04:46:26.947Z,100.00
2019-03-29T04:48:58.294Z,100.00
2019-03-29T04:51:29.096Z,100.00
2019-03-29T04:53:59.971Z,100.00
2019-03-29T04:56:31.271Z,100.00
2019-03-29T04:59:02.092Z,100.00
2019-03-29T05:01:46.873Z,100.00
2019-03-29T05:04:39.039Z,100.00
2019-03-29T05:07:21.180Z,100.00
2019-03-29T05:10:21.406Z,100.00
2019-03-29T05:12:52.867Z,100.00
2019-03-29T05:15:23.702Z,100.00
2019-03-29T05:17:54.995Z,100.00
2019-03-29T05:20:25.864Z,100.00
2019-03-29T05:22:56.878Z,100.00
2019-03-29T05:25:27.658Z,100.00
2019-03-29T05:27:59.188Z,100.00
2019-03-29T05:30:30.051Z,100.00
2019-03-29T05:33:01.330Z,100.00
2019-03-29T05:35:32.690Z,100.00
2019-03-29T05:38:04.352Z,100.00
2019-03-29T05:40:35.909Z,100.00
2019-03-29T05:43:07.270Z,100.00
2019-03-29T05:45:38.448Z,100.00
2019-03-29T05:48:10.141Z,100.00
2019-03-29T05:50:41.016Z,100.00
2019-03-29T05:53:12.645Z,100.00
2019-03-29T05:55:44.076Z,100.00
2019-03-29T05:58:15.059Z,100.00
2019-03-29T06:00:46.664Z,100.00
2019-03-29T06:03:17.546Z,100.00
2019-03-29T06:05:48.488Z,100.00
2019-03-29T06:08:20.741Z,100.00
2019-03-29T06:10:51.622Z,100.00
2019-03-29T06:13:22.464Z,100.00
2019-03-29T06:15:53.376Z,100.00
2019-03-29T06:18:25.467Z,100.00
2019-03-29T06:20:56.787Z,100.00
2019-03-29T06:23:32.954Z,100.00
2019-03-29T06:26:08.941Z,100.00
2019-03-29T06:28:40.346Z,100.00
2019-03-29T06:31:19.928Z,100.00
2019-03-29T06:33:51.828Z,100.00
2019-03-29T06:36:24.302Z,100.00
2019-03-29T06:38:56.642Z,100.00
2019-03-29T06:41:27.593Z,100.00
2019-03-29T06:43:58.784Z,100.00
2019-03-29T06:46:29.960Z,100.00
2019-03-29T06:49:01.040Z,100.00
2019-03-29T06:51:32.325Z,100.00
2019-03-29T06:54:04.073Z,100.00
2019-03-29T06:56:35.330Z,100.00
2019-03-29T06:59:06.966Z,100.00
2019-03-29T07:01:37.922Z,100.00
2019-03-29T07:04:09.414Z,100.00
2019-03-29T07:06:40.637Z,100.00
2019-03-29T07:09:11.561Z,100.00
2019-03-29T07:11:42.889Z,100.00
2019-03-29T07:14:14.340Z,100.00
2019-03-29T07:16:45.168Z,100.00
2019-03-29T07:19:16.057Z,100.00
2019-03-29T07:21:47.362Z,100.00
2019-03-29T07:24:18.419Z,100.00
2019-03-29T07:26:49.471Z,100.00
2019-03-29T07:29:21.132Z,100.00
2019-03-29T07:31:53.251Z,100.00
2019-03-29T07:34:24.641Z,100.00
2019-03-29T07:36:56.417Z,100.00
2019-03-29T07:39:27.965Z,100.00
2019-03-29T07:41:59.297Z,100.00
2019-03-29T07:44:32.660Z,100.00
2019-03-29T07:47:03.268Z,100.00
2019-03-29T07:49:34.993Z,100.00
2019-03-29T07:52:06.288Z,100.00
2019-03-29T07:54:38.025Z,100.00
2019-03-29T07:57:08.834Z,100.00
2019-03-29T07:59:39.904Z,100.00
2019-03-29T08:02:11.401Z,100.00
2019-03-29T08:04:46.289Z,100.00
2019-03-29T08:07:26.664Z,100.00
2019-03-29T08:09:49.587Z,100.00
2019-03-29T08:12:22.024Z,100.00
2019-03-29T08:14:53.357Z,100.00
2019-03-29T08:17:24.340Z,100.00
2019-03-29T08:20:24.428Z,100.00
2019-03-29T08:22:27.770Z,100.00
2019-03-29T08:24:59.424Z,100.00
2019-03-29T08:27:30.550Z,100.00
2019-03-29T08:30:01.386Z,100.00
2019-03-29T08:32:32.680Z,100.00
2019-03-29T08:35:03.897Z,100.00
2019-03-29T08:37:35.251Z,100.00
2019-03-29T08:40:06.931Z,100.00
2019-03-29T08:42:37.800Z,100.00
2019-03-29T08:45:09.081Z,100.00
2019-03-29T08:47:39.891Z,100.00
2019-03-29T08:50:10.703Z,100.00
2019-03-29T08:52:41.864Z,100.00
2019-03-29T08:55:12.868Z,100.00
2019-03-29T08:57:43.735Z,100.00
2019-03-29T09:00:18.840Z,100.00
2019-03-29T09:02:50.023Z,100.00
2019-03-29T09:05:20.902Z,100.00
2019-03-29T09:07:52.112Z,100.00
2019-03-29T09:10:25.475Z,100.00
2019-03-29T09:12:56.891Z,100.00
2019-03-29T09:15:27.965Z,100.00
2019-03-29T09:18:00.018Z,100.00
2019-03-29T09:20:34.300Z,100.00
2019-03-29T09:23:03.769Z,100.00
2019-03-29T09:25:34.757Z,100.00
2019-03-29T09:28:05.643Z,100.00
2019-03-29T09:30:36.469Z,100.00
2019-03-29T09:33:07.332Z,100.00
2019-03-29T09:35:38.526Z,100.00
2019-03-29T09:38:09.507Z,100.00
2019-03-29T09:40:40.543Z,100.00
2019-03-29T09:43:11.725Z,100.00
2019-03-29T09:45:43.249Z,100.00
2019-03-29T09:48:14.667Z,100.00
2019-03-29T09:50:50.144Z,100.00
2019-03-29T09:53:18.379Z,100.00
2019-03-29T09:55:49.782Z,100.00
2019-03-29T09:58:22.366Z,100.00
2019-03-29T10:00:54.129Z,100.00
2019-03-29T10:03:25.919Z,100.00
2019-03-29T10:05:57.149Z,100.00
2019-03-29T10:08:28.581Z,100.00
2019-03-29T10:11:01.507Z,100.00
2019-03-29T10:13:32.381Z,100.00
2019-03-29T10:16:03.703Z,100.00
2019-03-29T10:18:34.964Z,100.00
2019-03-29T10:21:08.253Z,100.00
2019-03-29T10:23:39.547Z,100.00
2019-03-29T10:26:13.093Z,100.00
2019-03-29T10:28:45.556Z,100.00
2019-03-29T10:31:31.940Z,100.00
2019-03-29T10:33:56.034Z,100.00
2019-03-29T10:36:27.817Z,100.00
2019-03-29T10:38:58.651Z,100.00
2019-03-29T10:41:34.049Z,100.00
2019-03-29T10:44:03.385Z,100.00
2019-03-29T10:46:34.236Z,100.00
2019-03-29T10:49:05.416Z,100.00
2019-03-29T10:51:39.431Z,100.00
2019-03-29T10:54:10.388Z,100.00
2019-03-29T10:56:41.819Z,100.00
2019-03-29T10:59:26.566Z,100.00
2019-03-29T11:01:47.108Z,100.00
2019-03-29T11:04:17.977Z,100.00
2019-03-29T11:06:48.992Z,100.00
2019-03-29T11:09:20.279Z,100.00
2019-03-29T11:11:51.796Z,100.00
2019-03-29T11:14:22.910Z,100.00
2019-03-29T11:16:53.755Z,100.00
2019-03-29T11:19:25.089Z,100.00
2019-03-29T11:21:56.504Z,100.00
2019-03-29T11:24:27.830Z,100.00
2019-03-29T11:27:01.483Z,100.00
2019-03-29T11:29:34.995Z,100.00
2019-03-29T11:32:06.584Z,100.00
2019-03-29T11:34:38.201Z,100.00
2019-03-29T11:37:09.963Z,100.00
2019-03-29T11:39:46.571Z,100.00
2019-03-29T11:42:22.018Z,100.00
2019-03-29T11:44:53.166Z,100.00
2019-03-29T11:47:24.709Z,100.00
2019-03-29T11:49:56.034Z,100.00
2019-03-29T11:52:28.599Z,100.00
2019-03-29T11:54:59.982Z,100.00
2019-03-29T11:57:31.194Z,100.00
2019-03-29T12:00:02.180Z,100.00
2019-03-29T12:02:33.337Z,100.00
2019-03-29T12:05:04.600Z,100.00
2019-03-29T12:07:35.843Z,100.00
2019-03-29T12:10:16.923Z,100.00
2019-03-29T12:12:55.170Z,100.00
2019-03-29T12:15:26.520Z,100.00
2019-03-29T12:17:59.835Z,100.00
2019-03-29T12:20:31.204Z,100.00
2019-03-29T12:23:02.566Z,100.00
2019-03-29T12:25:34.036Z,100.00
2019-03-29T12:28:08.423Z,100.00
2019-03-29T12:30:41.260Z,100.00
2019-03-29T12:33:12.600Z,100.00
2019-03-29T12:35:45.438Z,100.00
2019-03-29T12:38:20.701Z,100.00
2019-03-29T12:40:55.288Z,100.00
2019-03-29T12:43:28.139Z,100.00
2019-03-29T12:46:02.191Z,100.00
2019-03-29T12:48:33.435Z,100.00
2019-03-29T12:51:04.311Z,100.00
2019-03-29T12:53:35.931Z,100.00
2019-03-29T12:56:06.775Z,100.00
2019-03-29T12:58:44.649Z,100.00
2019-03-29T13:01:16.229Z,100.00
2019-03-29T13:03:47.146Z,100.00
2019-03-29T13:06:18.766Z,100.00
2019-03-29T13:08:51.746Z,100.00
2019-03-29T13:11:25.304Z,100.00
2019-03-29T13:14:10.176Z,100.00
2019-03-29T13:16:35.797Z,100.00
2019-03-29T13:19:07.502Z,100.00
2019-03-29T13:21:39.078Z,100.00
2019-03-29T13:24:10.432Z,100.00
2019-03-29T13:26:41.244Z,100.00
2019-03-29T13:29:12.429Z,100.00
2019-03-29T13:31:44.111Z,100.00
2019-03-29T13:34:15.127Z,100.00
2019-03-29T13:36:49.418Z,100.00
2019-03-29T13:39:22.271Z,100.00
2019-03-29T13:41:53.491Z,94.48
2019-03-29T13:44:28.147Z,92.46
2019-03-29T13:46:57.622Z,93.21
2019-03-29T13:49:28.476Z,91.54
2019-03-29T13:51:59.397Z,94.70
2019-03-29T13:54:31.301Z,91.90
2019-03-29T13:57:03.030Z,92.30
2019-03-29T13:59:33.967Z,93.89
2019-03-29T14:02:05.335Z,96.23
2019-03-29T14:04:36.223Z,99.77
2019-03-29T14:07:15.131Z,100.00
2019-03-29T14:09:46.030Z,100.00
2019-03-29T14:12:17.265Z,100.00
2019-03-29T14:14:50.193Z,100.00
2019-03-29T14:17:21.455Z,100.00
2019-03-29T14:19:52.745Z,100.00
2019-03-29T14:22:24.669Z,100.00
2019-03-29T14:24:55.979Z,100.00
2019-03-29T14:27:27.063Z,100.00
2019-03-29T14:30:04.803Z,100.00
2019-03-29T14:32:31.762Z,100.00
2019-03-29T14:35:02.924Z,100.00
2019-03-29T14:37:34.309Z,100.00
2019-03-29T14:40:06.954Z,100.00
2019-03-29T14:42:38.205Z,100.00
2019-03-29T14:45:10.188Z,100.00
2019-03-29T14:47:43.767Z,100.00
2019-03-29T14:50:14.535Z,100.00
2019-03-29T14:52:45.649Z,100.00
2019-03-29T14:55:16.729Z,100.00
2019-03-29T14:57:48.259Z,100.00
2019-03-29T15:00:57.808Z,100.00
2019-03-29T15:03:31.402Z,100.00
2019-03-29T15:06:06.194Z,100.00
2019-03-29T15:08:39.101Z,100.00
2019-03-29T15:11:22.509Z,100.00
2019-03-29T15:13:59.356Z,100.00
2019-03-29T15:16:33.162Z,100.00
2019-03-29T15:19:08.284Z,100.00
2019-03-29T15:21:41.775Z,100.00
2019-03-29T15:24:13.953Z,100.00
2019-03-29T15:26:48.813Z,100.00
2019-03-29T15:29:21.106Z,100.00
2019-03-29T15:31:52.142Z,100.00
2019-03-29T15:34:23.541Z,100.00
2019-03-29T15:36:59.859Z,100.00
2019-03-29T15:39:35.109Z,100.00
2019-03-29T15:45:21.284Z,100.00
2019-03-29T15:47:52.844Z,100.00
2019-03-29T15:50:24.166Z,100.00
2019-03-29T15:52:59.810Z,100.00
2019-03-29T15:55:31.260Z,100.00
2019-03-29T15:58:05.615Z,100.00
2019-03-29T16:00:37.758Z,100.00
2019-03-29T16:03:08.724Z,100.00
2019-03-29T16:05:41.464Z,100.00
2019-03-29T16:08:14.410Z,100.00
2019-03-29T16:10:46.890Z,100.00
2019-03-29T16:13:18.648Z,100.00
2019-03-29T16:15:50.378Z,100.00
2019-03-29T16:18:21.974Z,100.00
2019-03-29T16:20:53.286Z,100.00
2019-03-29T16:23:25.005Z,100.00
2019-03-29T16:26:00.610Z,100.00
2019-03-29T16:28:31.399Z,100.00
2019-03-29T16:31:12.119Z,100.00
2019-03-29T16:33:53.597Z,100.00
2019-03-29T16:36:27.604Z,100.00
2019-03-29T16:38:58.521Z,100.00
2019-03-29T16:41:30.013Z,100.00
2019-03-29T16:44:02.915Z,100.00
2019-03-29T16:46:34.126Z,100.00
2019-03-29T16:49:05.967Z,100.00
2019-03-29T16:51:37.414Z,100.00
2019-03-29T16:54:09.150Z,100.00
2019-03-29T16:56:42.898Z,100.00
2019-03-29T16:59:13.989Z,100.00
2019-03-29T17:01:54.113Z,100.00
2019-03-29T17:04:28.511Z,100.00
2019-03-29T17:07:01.845Z,100.00
2019-03-29T17:09:34.199Z,100.00
2019-03-29T17:12:07.122Z,100.00
2019-03-29T17:14:42.049Z,100.00
2019-03-29T17:17:16.010Z,100.00
2019-03-29T17:19:49.128Z,100.00
2019-03-29T17:22:26.231Z,100.00
2019-03-29T17:25:02.128Z,100.00
2019-03-29T17:27:35.857Z,100.00
2019-03-29T17:30:10.583Z,100.00
2019-03-29T17:32:57.586Z,100.00
2019-03-29T17:35:27.695Z,100.00
2019-03-29T17:38:00.687Z,100.00
2019-03-29T17:40:44.165Z,100.00
2019-03-29T17:43:33.480Z,100.00
2019-03-29T17:46:16.717Z,100.00
2019-03-29T17:49:02.509Z,100.00
2019-03-29T17:51:34.296Z,100.00
2019-03-29T17:54:21.481Z,100.00
2019-03-29T17:56:56.246Z,100.00
2019-03-29T17:59:29.546Z,100.00
2019-03-29T18:02:09.388Z,100.00
2019-03-29T18:04:35.010Z,100.00
2019-03-29T18:07:07.914Z,100.00
2019-03-29T18:09:39.778Z,100.00
2019-03-29T18:12:16.794Z,100.00
2019-03-29T18:14:54.969Z,100.00
2019-03-29T18:17:29.814Z,100.00
2019-03-29T18:20:01.770Z,100.00
2019-03-29T18:22:34.302Z,100.00
2019-03-29T18:25:14.405Z,100.00
2019-03-29T18:27:46.640Z,100.00
2019-03-29T18:30:23.686Z,100.00
2019-03-29T18:32:55.976Z,100.00
2019-03-29T18:35:32.349Z,100.00
2019-03-29T18:38:04.461Z,100.00
2019-03-29T18:41:19.836Z,100.00
2019-03-29T18:43:28.384Z,100.00
2019-03-29T18:46:00.058Z,100.00
2019-03-29T18:48:35.050Z,100.00
2019-03-29T18:51:08.195Z,100.00
2019-03-29T18:53:40.852Z,100.00
2019-03-29T18:56:12.642Z,100.00
2019-03-29T18:58:54.408Z,100.00
2019-03-29T19:01:29.831Z,100.00
2019-03-29T19:04:02.443Z,100.00
2019-03-29T19:06:34.422Z,100.00
2019-03-29T19:09:12.655Z,100.00
2019-03-29T19:11:44.384Z,100.00
2019-03-29T19:14:18.907Z,100.00
2019-03-29T19:16:58.706Z,100.00
2019-03-29T19:19:28.519Z,100.00
2019-03-29T19:22:00.306Z,100.00
2019-03-29T19:24:37.313Z,100.00
2019-03-29T19:27:08.956Z,100.00
2019-03-29T19:29:48.952Z,100.00
2019-03-29T19:32:23.359Z,100.00
2019-03-29T19:34:56.233Z,100.00
2019-03-29T19:37:29.612Z,100.00
2019-03-29T19:40:04.664Z,100.00
2019-03-29T19:42:40.476Z,100.00
2019-03-29T19:45:16.399Z,100.00
2019-03-29T19:47:52.475Z,100.00
2019-03-29T19:50:26.463Z,100.00
2019-03-29T19:52:59.043Z,100.00
2019-03-29T19:55:50.073Z,100.00
2019-03-29T19:58:26.351Z,100.00
2019-03-29T20:01:04.695Z,100.00
2019-03-29T20:03:39.914Z,100.00
2019-03-29T20:06:12.987Z,100.00
2019-03-29T20:08:46.102Z,100.00
2019-03-29T20:11:19.578Z,100.00
2019-03-29T20:13:52.721Z,100.00
2019-03-29T20:16:31.854Z,100.00
2019-03-29T20:19:12.901Z,100.00
2019-03-29T20:21:49.863Z,100.00
2019-03-29T20:24:31.865Z,100.00
2019-03-29T20:27:03.898Z,100.00
2019-03-29T20:29:38.551Z,100.00
2019-03-29T20:32:10.972Z,100.00
2019-03-29T20:34:51.423Z,100.00
2019-03-29T20:37:28.706Z,100.00
2019-03-29T20:40:07.640Z,100.00
2019-03-29T20:42:48.876Z,100.00
2019-03-29T20:45:23.092Z,100.00
2019-03-29T20:47:54.851Z,100.00
2019-03-29T20:50:26.932Z,100.00
2019-03-29T20:52:58.059Z,100.00
2019-03-29T20:55:29.077Z,100.00
2019-03-29T20:58:01.665Z,100.00
2019-03-29T21:00:36.316Z,100.00
2019-03-29T21:03:10.472Z,100.00
2019-03-29T21:05:42.632Z,100.00
2019-03-29T21:08:29.037Z,100.00
2019-03-29T21:11:03.639Z,100.00
2019-03-29T21:13:35.014Z,100.00
2019-03-29T21:16:08.866Z,100.00
2019-03-29T21:18:40.117Z,100.00
2019-03-29T21:21:11.860Z,100.00
2019-03-29T21:23:49.994Z,100.00
2019-03-29T21:26:23.674Z,100.00
2019-03-29T21:28:55.488Z,100.00
2019-03-29T21:31:29.359Z,100.00
2019-03-29T21:34:01.258Z,100.00
2019-03-29T21:36:33.036Z,100.00
2019-03-29T21:39:10.817Z,100.00
2019-03-29T21:41:43.101Z,100.00
2019-03-29T21:44:18.016Z,100.00
2019-03-29T21:46:51.204Z,100.00
2019-03-29T21:49:30.214Z,100.00
2019-03-29T21:52:09.604Z,100.00
2019-03-29T21:54:41.499Z,100.00
2019-03-29T21:57:13.617Z,100.00
2019-03-29T21:59:47.555Z,100.00
2019-03-29T22:02:21.402Z,100.00
2019-03-29T22:04:51.961Z,100.00
2019-03-29T22:07:24.528Z,100.00
2019-03-29T22:09:57.252Z,100.00
2019-03-29T22:12:35.924Z,100.00
2019-03-29T22:15:18.805Z,100.00
2019-03-29T22:18:06.864Z,100.00
2019-03-29T22:20:45.536Z,100.00
2019-03-29T22:23:31.958Z,100.00
2019-03-29T22:26:10.776Z,100.00
2019-03-29T22:28:41.246Z,100.00
2019-03-29T22:31:12.125Z,100.00
2019-03-29T22:33:45.967Z,100.00
2019-03-29T22:36:17.013Z,100.00
2019-03-29T22:39:01.303Z,100.00
2019-03-29T22:41:35.651Z,100.00
2019-03-29T22:44:07.865Z,100.00
2019-03-29T22:46:40.075Z,100.00
2019-03-29T22:49:11.434Z,100.00
2019-03-29T22:51:43.664Z,100.00
2019-03-29T22:54:18.462Z,100.00
2019-03-29T22:56:49.888Z,100.00
2019-03-29T22:59:21.508Z,100.00
2019-03-29T23:01:53.431Z,100.00
2019-03-29T23:04:24.672Z,100.00
2019-03-29T23:07:04.885Z,100.00
2019-03-29T23:09:42.365Z,100.00
2019-03-29T23:12:15.483Z,100.00
2019-03-29T23:14:48.523Z,100.00
2019-03-29T23:17:19.707Z,100.00
2019-03-29T23:19:51.998Z,100.00
2019-03-29T23:22:23.311Z,100.00
2019-03-29T23:24:54.213Z,100.00
2019-03-29T23:27:25.640Z,100.00
2019-03-29T23:29:57.948Z,100.00
2019-03-29T23:32:29.019Z,100.00
2019-03-29T23:35:00.438Z,100.00
2019-03-29T23:37:31.532Z,100.00
2019-03-29T23:40:02.762Z,100.00
2019-03-29T23:42:34.222Z,100.00
2019-03-29T23:45:06.177Z,100.00
2019-03-29T23:47:40.238Z,100.00
2019-03-29T23:50:11.653Z,100.00
2019-03-29T23:52:42.857Z,100.00
2019-03-29T23:55:14.485Z,100.00
2019-03-29T23:57:45.389Z,100.00
